Main page
METAR-TAF:

METAR-TAF

Airports :

Victoria International Airport

Victoria, British Columbia, Canada

latitude: 48-39N, longitude: 123-26W, elevation: 20 m

Current weather observation

The report was made 1 hour and 22 minutes ago, at 21:00 UTC
Wind 9 kt from the East
Temperature 24°C
Humidity 50%
Pressure 1016 hPa
Visibility: 48.3 km
Clear sky

METAR: CYYJ 142100Z 10009KT 30SM SKC 24/13 A3001 RMK SLP164 DENSITY ALT 1100FT

Time: 15:22 (22:22 UTC)

Forecast

The report was made 4 hours and 42 minutes ago, at 17:40 UTC
Forecast valid from 14 at 18 UTC to 15 at 18 UTC
Wind 8 kt from the East/Southeast
Visibility: 10 km
Clear sky
Becoming
from 15 at 02 UTC to 15 at 04 UTC
Wind 3 kt from variable directions

TAF: CYYJ 141740Z 1418/1518 12008KT P6SM SKC BECMG 1502/1504 VRB03KT RMK NXT FCST BY 150000Z

Weather observations and forecasts of more than 4000 airports (METAR and TAF reports).

The available stations are represented by yellow and red dots on the map.

Hover mouse over dot to see the name of the station.

Then click to see weather observations and forecasts.

To change the map : click on the green buttons with a black cross to zoom in, on the green button with a dash to zoom out, or on the green arrows for adjacent maps.


METAR-TAF: